OTP weather

Henri Coandă International Airport
Bucharest, Bucureşti, Romania

Public forecast

Using degrees Celsius for public forecast. Weather courtesy of forecast.io.

Current aviation weather report (METAR) for Henri Coandă International Airport

Retrieved 2020/03/31 13:30 UTC (2 minutes ago):

LROP 311330Z 07010KT 030V090 9999 OVC042 04/M10 Q1021 NOSIG

Aviation forecast (TAF) for Henri Coandă International Airport

Retrieved 2020/03/31 12:35 UTC (57 minutes ago):

TAF LROP 311100Z 3112/0112 08012KT 9999 OVC035 TEMPO 3112/3118 08020G30KT